메인 페이지
METAR-TAF:

METAR-TAF

공항 :

OR 탐보 국제공항

요하네스버그, 남아프리카공화국

위도: 26-08S, 경도: 028-14E, 고도: 1694m

현재 날씨관측

예보는 32분 전, 12:00시(UTC)에 발표되었습니다.
남남서7kt풍과 풍을 오가는
온도 20°C
습도 10%
기압 1023 hPa
시정 10km 이상
1500m 미만 상공 구름 및 적란운 없음

METAR: FAOR 251200Z 21007KT 170V280 CAVOK 20/M12 Q1023 NOSIG

시각: 14:32 (12:32 UTC)

예보

예보는 2 시간 32분 전, 10:00시(UTC)에 발표되었습니다.
예보 대상 시간: 25일 12시부터 26일 18시까지 (UTC)
남서7kt
시정 10km 이상
1500m 미만 상공 구름 및 적란운 없음
25일 1600시부터 (UTC)
여러 방향의 바람 3kt
시정 10km 이상
1500m 미만 상공 구름 및 적란운 없음
26일 0200시부터 (UTC)
7kt
시정 10km 이상
고도 1000ft 상공 구름 보통
전환 중
26일 02시부터 26일 04시까지 (UTC)
북북서12kt
확률 30% :
일시적
26일 03시부터 26일 06시까지 (UTC)
시정: 5000m
고도 1000ft 상공 구름 많음
박무
전환 중
26일 09시부터 26일 11시까지 (UTC)
시정 10km 이상
1500m 미만 상공 구름 및 적란운 없음

TAF: FAOR 251000Z 2512/2618 22007KT CAVOK TX19/2513Z TN05/2605Z FM251600 VRB03KT CAVOK FM260200 35007KT 9999 SCT010 BECMG 2602/2604 34012KT PROB30 TEMPO 2603/2606 5000 BR BKN010 BECMG 2609/2611 CAVOK

4,000개 이상의 공항 관측 자료 및 예보 (METAR 및 TAF 보고).

지도상에서 검색 가능한 기상관측소가 노란 점과 빨간 점으로 표시되어 있습니다.

기상관측소 명을 보려면 표시 위로 마우스를 이동하세요.

날씨 관측과 예보를 보려면 클릭하세요.

지도 변경 : 확대하려면 엑스 표시가 있는 녹색 버튼, 축소하려면 빼기 표시가 있는 녹색 버튼, 다음 페이지의 지도를 보려면 녹색 화살표를 클릭하세요.


METAR-TAF: